createdAt,value
2023-03-15T00:02:17.000Z,0
2023-03-15T00:03:35.000Z,0
2023-03-15T00:06:20.000Z,0
2023-03-15T00:09:04.000Z,0
2023-03-15T00:11:49.000Z,0
2023-03-15T00:14:33.000Z,0
2023-03-15T00:17:18.000Z,0
2023-03-15T00:20:03.000Z,0
2023-03-15T00:22:47.000Z,0
2023-03-15T00:25:32.000Z,0
2023-03-15T00:28:17.000Z,0
2023-03-15T00:29:44.000Z,0
2023-03-15T00:31:01.000Z,0
2023-03-15T00:33:46.000Z,0
2023-03-15T00:36:31.000Z,0
2023-03-15T00:39:15.000Z,0
2023-03-15T00:42:00.000Z,0
2023-03-15T00:44:45.000Z,0
2023-03-15T00:47:29.000Z,0
2023-03-15T00:50:14.000Z,0
2023-03-15T00:52:58.000Z,0
2023-03-15T00:55:43.000Z,0
2023-03-15T00:57:10.000Z,0
2023-03-15T00:58:28.000Z,0
2023-03-15T01:01:12.000Z,0
2023-03-15T01:03:57.000Z,0
2023-03-15T01:06:42.000Z,0
2023-03-15T01:09:26.000Z,0
2023-03-15T01:12:11.000Z,0
2023-03-15T01:14:56.000Z,0
2023-03-15T01:17:40.000Z,0
2023-03-15T01:20:25.000Z,0
2023-03-15T01:23:10.000Z,0
2023-03-15T01:24:36.000Z,0
2023-03-15T01:25:54.000Z,0
2023-03-15T01:28:39.000Z,0
2023-03-15T01:31:23.000Z,0
2023-03-15T01:34:08.000Z,0
2023-03-15T01:36:53.000Z,0
2023-03-15T01:39:37.000Z,0
2023-03-15T01:42:22.000Z,0
2023-03-15T01:45:07.000Z,0
2023-03-15T01:47:51.000Z,0
2023-03-15T01:50:36.000Z,0
2023-03-15T01:52:03.000Z,0
2023-03-15T01:53:21.000Z,0
2023-03-15T01:58:50.000Z,0
2023-03-15T02:01:35.000Z,0
2023-03-15T02:04:19.000Z,0
2023-03-15T02:07:04.000Z,0
2023-03-15T02:09:48.000Z,0
2023-03-15T02:12:33.000Z,0
2023-03-15T02:15:18.000Z,0
2023-03-15T02:18:02.000Z,0
2023-03-15T02:19:29.000Z,0
2023-03-15T02:20:47.000Z,0
2023-03-15T02:23:32.000Z,0
2023-03-15T02:26:16.000Z,0
2023-03-15T02:29:01.000Z,0
2023-03-15T02:31:46.000Z,0
2023-03-15T02:34:30.000Z,0
2023-03-15T02:37:15.000Z,0
2023-03-15T02:40:00.000Z,0
2023-03-15T02:42:44.000Z,0
2023-03-15T02:45:29.000Z,0
2023-03-15T02:46:56.000Z,0
2023-03-15T02:48:13.000Z,0
2023-03-15T02:50:58.000Z,0
2023-03-15T02:53:43.000Z,0
2023-03-15T02:56:27.000Z,0
2023-03-15T02:59:12.000Z,0
2023-03-15T03:01:57.000Z,0
2023-03-15T03:04:41.000Z,0
2023-03-15T03:07:26.000Z,0
2023-03-15T03:10:11.000Z,0
2023-03-15T03:12:55.000Z,0
2023-03-15T03:14:22.000Z,0
2023-03-15T03:15:40.000Z,0
2023-03-15T03:18:25.000Z,0
2023-03-15T03:21:09.000Z,0
2023-03-15T03:23:54.000Z,0
2023-03-15T03:26:38.000Z,0
2023-03-15T03:29:23.000Z,0
2023-03-15T03:32:08.000Z,0
2023-03-15T03:34:52.000Z,0
2023-03-15T03:37:37.000Z,0
2023-03-15T03:40:22.000Z,0
2023-03-15T03:41:49.000Z,0
2023-03-15T03:43:06.000Z,0
2023-03-15T03:45:51.000Z,0
2023-03-15T03:48:36.000Z,0
2023-03-15T03:51:20.000Z,0
2023-03-15T03:54:05.000Z,0
2023-03-15T03:56:50.000Z,0
2023-03-15T03:59:34.000Z,0
2023-03-15T04:02:19.000Z,0
2023-03-15T04:05:03.000Z,0
2023-03-15T04:07:48.000Z,0
2023-03-15T04:09:15.000Z,0
2023-03-15T04:10:33.000Z,0
2023-03-15T04:13:17.000Z,0
2023-03-15T04:16:02.000Z,0
2023-03-15T04:18:47.000Z,0
2023-03-15T04:21:31.000Z,0
2023-03-15T04:24:16.000Z,0
2023-03-15T04:27:01.000Z,0
2023-03-15T04:30:02.000Z,0
2023-03-15T04:32:46.000Z,0
2023-03-15T04:35:31.000Z,0
2023-03-15T04:36:49.000Z,0
2023-03-15T04:38:16.000Z,0
2023-03-15T04:41:00.000Z,0
2023-03-15T04:43:45.000Z,0
2023-03-15T04:46:46.000Z,0
2023-03-15T04:49:31.000Z,0
2023-03-15T04:52:15.000Z,0
2023-03-15T04:55:00.000Z,0
2023-03-15T04:57:44.000Z,0
2023-03-15T05:00:29.000Z,0
2023-03-15T05:03:14.000Z,0
2023-03-15T05:04:31.000Z,0
2023-03-15T05:05:58.000Z,0
2023-03-15T05:08:43.000Z,0
2023-03-15T05:11:28.000Z,0
2023-03-15T05:14:12.000Z,0
2023-03-15T05:16:57.000Z,0
2023-03-15T05:19:42.000Z,0
2023-03-15T05:22:26.000Z,0
2023-03-15T05:25:11.000Z,0
2023-03-15T05:27:56.000Z,0
2023-03-15T05:30:57.000Z,0
2023-03-15T05:32:14.000Z,0
2023-03-15T05:33:41.000Z,0
2023-03-15T05:36:26.000Z,0
2023-03-15T05:39:27.000Z,0
2023-03-15T05:42:11.000Z,0
2023-03-15T05:44:56.000Z,0
2023-03-15T05:47:41.000Z,0
2023-03-15T05:50:25.000Z,5
2023-03-15T05:53:10.000Z,5
2023-03-15T05:55:55.000Z,5
2023-03-15T05:58:39.000Z,11
2023-03-15T05:59:57.000Z,22
2023-03-15T06:01:24.000Z,22
2023-03-15T06:04:09.000Z,28
2023-03-15T06:06:53.000Z,45
2023-03-15T06:09:38.000Z,56
2023-03-15T06:12:23.000Z,61
2023-03-15T06:15:07.000Z,78
2023-03-15T06:17:52.000Z,90
2023-03-15T06:20:36.000Z,151
2023-03-15T06:23:21.000Z,191
2023-03-15T06:26:06.000Z,129
2023-03-15T06:27:23.000Z,281
2023-03-15T06:28:50.000Z,247
2023-03-15T06:31:35.000Z,106
2023-03-15T06:34:20.000Z,95
2023-03-15T06:37:04.000Z,90
2023-03-15T06:39:49.000Z,106
2023-03-15T06:42:34.000Z,106
2023-03-15T06:45:18.000Z,140
2023-03-15T06:48:03.000Z,151
2023-03-15T06:50:48.000Z,129
2023-03-15T06:53:32.000Z,146
2023-03-15T06:54:50.000Z,174
2023-03-15T06:56:17.000Z,202
2023-03-15T06:59:01.000Z,213
2023-03-15T07:01:46.000Z,219
2023-03-15T07:04:31.000Z,208
2023-03-15T07:07:15.000Z,208
2023-03-15T07:10:00.000Z,208
2023-03-15T07:12:45.000Z,270
2023-03-15T07:15:29.000Z,911
2023-03-15T07:18:14.000Z,483
2023-03-15T07:20:59.000Z,1029
2023-03-15T07:22:16.000Z,663
2023-03-15T07:23:43.000Z,1125
2023-03-15T07:26:28.000Z,787
2023-03-15T07:29:12.000Z,748
2023-03-15T07:31:57.000Z,928
2023-03-15T07:34:42.000Z,838
2023-03-15T07:37:26.000Z,1102
2023-03-15T07:40:11.000Z,1800
2023-03-15T07:42:56.000Z,1119
2023-03-15T07:45:40.000Z,742
2023-03-15T07:48:25.000Z,1023
2023-03-15T07:49:43.000Z,1063
2023-03-15T07:51:10.000Z,1260
2023-03-15T07:53:54.000Z,1395
2023-03-15T07:56:39.000Z,1895
2023-03-15T07:59:24.000Z,1951
2023-03-15T08:02:08.000Z,1659
2023-03-15T08:04:53.000Z,1771
2023-03-15T08:07:37.000Z,2936
2023-03-15T08:10:22.000Z,3391
2023-03-15T08:13:07.000Z,3504
2023-03-15T08:15:51.000Z,3706
2023-03-15T08:17:09.000Z,3729
2023-03-15T08:18:36.000Z,3729
2023-03-15T08:21:21.000Z,3751
2023-03-15T08:24:05.000Z,3577
2023-03-15T08:26:50.000Z,3673
2023-03-15T08:29:35.000Z,2908
2023-03-15T08:32:19.000Z,3555
2023-03-15T08:35:04.000Z,3605
2023-03-15T08:37:49.000Z,3858
2023-03-15T08:40:33.000Z,826
2023-03-15T08:43:18.000Z,3375
2023-03-15T08:44:36.000Z,3673
2023-03-15T08:46:02.000Z,3633
2023-03-15T08:48:47.000Z,3060
2023-03-15T08:51:32.000Z,759
2023-03-15T08:54:16.000Z,506
2023-03-15T08:57:01.000Z,2317
2023-03-15T08:59:46.000Z,3740
2023-03-15T09:02:30.000Z,3369
2023-03-15T09:05:15.000Z,4168
2023-03-15T09:08:00.000Z,939
2023-03-15T09:10:44.000Z,3763
2023-03-15T09:12:02.000Z,3898
2023-03-15T09:13:29.000Z,3965
2023-03-15T09:16:13.000Z,3425
2023-03-15T09:21:43.000Z,3397
2023-03-15T09:24:27.000Z,3268
2023-03-15T09:27:12.000Z,1963
2023-03-15T09:29:57.000Z,3493
2023-03-15T09:32:41.000Z,3571
2023-03-15T09:35:26.000Z,3937
2023-03-15T09:38:11.000Z,3706
2023-03-15T09:39:28.000Z,3206
2023-03-15T09:40:55.000Z,3335
2023-03-15T09:43:40.000Z,3448
2023-03-15T09:46:25.000Z,3313
2023-03-15T09:49:09.000Z,3588
2023-03-15T09:51:54.000Z,3898
2023-03-15T09:54:38.000Z,3526
2023-03-15T09:57:23.000Z,3245
2023-03-15T10:00:08.000Z,2970
2023-03-15T10:02:52.000Z,3256
2023-03-15T10:05:37.000Z,3656
2023-03-15T10:06:55.000Z,3211
2023-03-15T10:08:22.000Z,3116
2023-03-15T10:11:06.000Z,2688
2023-03-15T10:13:51.000Z,877
2023-03-15T10:16:36.000Z,736
2023-03-15T10:19:20.000Z,3425
2023-03-15T10:22:05.000Z,3375
2023-03-15T10:24:49.000Z,1299
2023-03-15T10:27:34.000Z,2148
2023-03-15T10:30:19.000Z,506
2023-03-15T10:33:03.000Z,3245
2023-03-15T10:34:21.000Z,3481
2023-03-15T10:35:48.000Z,2193
2023-03-15T10:38:33.000Z,2446
2023-03-15T10:41:17.000Z,2041
2023-03-15T10:44:02.000Z,427
2023-03-15T10:46:47.000Z,3172
2023-03-15T10:52:16.000Z,1710
2023-03-15T10:55:01.000Z,2098
2023-03-15T10:57:45.000Z,1800
2023-03-15T11:00:30.000Z,405
2023-03-15T11:01:48.000Z,2092
2023-03-15T11:03:14.000Z,2188
2023-03-15T11:05:59.000Z,2244
2023-03-15T11:08:44.000Z,2497
2023-03-15T11:11:28.000Z,2812
2023-03-15T11:14:13.000Z,2030
2023-03-15T11:16:58.000Z,1029
2023-03-15T11:19:42.000Z,922
2023-03-15T11:22:27.000Z,804
2023-03-15T11:25:12.000Z,1861
2023-03-15T11:27:56.000Z,894
2023-03-15T11:29:14.000Z,630
2023-03-15T11:30:57.000Z,444
2023-03-15T11:33:42.000Z,455
2023-03-15T11:36:27.000Z,562
2023-03-15T11:39:11.000Z,376
2023-03-15T11:41:56.000Z,360
2023-03-15T11:44:40.000Z,798
2023-03-15T11:47:25.000Z,556
2023-03-15T11:50:10.000Z,360
2023-03-15T11:52:54.000Z,303
2023-03-15T11:55:39.000Z,821
2023-03-15T11:56:57.000Z,624
2023-03-15T11:58:24.000Z,517
2023-03-15T12:01:08.000Z,703
2023-03-15T12:03:53.000Z,478
2023-03-15T12:09:22.000Z,483
2023-03-15T12:12:07.000Z,534
2023-03-15T12:14:51.000Z,562
2023-03-15T12:20:21.000Z,579
2023-03-15T12:23:05.000Z,348
2023-03-15T12:24:23.000Z,427
2023-03-15T12:25:50.000Z,421
2023-03-15T12:28:35.000Z,500
2023-03-15T12:31:19.000Z,376
2023-03-15T12:34:04.000Z,450
2023-03-15T12:36:49.000Z,275
2023-03-15T12:39:33.000Z,472
2023-03-15T12:42:18.000Z,551
2023-03-15T12:45:03.000Z,568
2023-03-15T12:47:47.000Z,843
2023-03-15T12:50:32.000Z,281
2023-03-15T12:53:16.000Z,253
2023-03-15T12:54:34.000Z,241
2023-03-15T12:56:01.000Z,253
2023-03-15T12:58:46.000Z,343
2023-03-15T13:01:30.000Z,860
2023-03-15T13:04:15.000Z,427
2023-03-15T13:07:00.000Z,641
2023-03-15T13:10:01.000Z,455
2023-03-15T13:12:45.000Z,275
2023-03-15T13:15:30.000Z,258
2023-03-15T13:18:15.000Z,247
2023-03-15T13:20:59.000Z,275
2023-03-15T13:22:17.000Z,208
2023-03-15T13:23:44.000Z,410
2023-03-15T13:26:29.000Z,219
2023-03-15T13:29:13.000Z,185
2023-03-15T13:31:58.000Z,191
2023-03-15T13:34:42.000Z,180
2023-03-15T13:37:27.000Z,315
2023-03-15T13:40:12.000Z,315
2023-03-15T13:42:56.000Z,337
2023-03-15T13:45:41.000Z,360
2023-03-15T13:48:26.000Z,360
2023-03-15T13:49:43.000Z,270
2023-03-15T13:51:10.000Z,388
2023-03-15T13:53:55.000Z,360
2023-03-15T13:56:40.000Z,208
2023-03-15T13:59:24.000Z,196
2023-03-15T14:02:09.000Z,185
2023-03-15T14:04:53.000Z,315
2023-03-15T14:07:38.000Z,354
2023-03-15T14:10:23.000Z,360
2023-03-15T14:13:07.000Z,393
2023-03-15T14:15:52.000Z,438
2023-03-15T14:17:10.000Z,416
2023-03-15T14:18:37.000Z,405
2023-03-15T14:21:21.000Z,399
2023-03-15T14:24:06.000Z,376
2023-03-15T14:26:51.000Z,393
2023-03-15T14:29:35.000Z,388
2023-03-15T14:32:20.000Z,371
2023-03-15T14:35:05.000Z,337
2023-03-15T14:37:49.000Z,320
2023-03-15T14:44:36.000Z,275
2023-03-15T14:46:03.000Z,281
2023-03-15T14:48:48.000Z,281
2023-03-15T14:51:32.000Z,258
2023-03-15T14:54:17.000Z,241
2023-03-15T14:57:02.000Z,236
2023-03-15T14:59:46.000Z,241
2023-03-15T15:02:31.000Z,236
2023-03-15T15:05:16.000Z,225
2023-03-15T15:08:00.000Z,213
2023-03-15T15:10:45.000Z,219
2023-03-15T15:12:03.000Z,225
2023-03-15T15:13:29.000Z,219
2023-03-15T15:16:14.000Z,213
2023-03-15T15:18:59.000Z,202
2023-03-15T15:21:43.000Z,202
2023-03-15T15:24:28.000Z,191
2023-03-15T15:27:13.000Z,196
2023-03-15T15:29:57.000Z,196
2023-03-15T15:32:42.000Z,191
2023-03-15T15:35:27.000Z,185
2023-03-15T15:38:11.000Z,180
2023-03-15T15:39:29.000Z,174
2023-03-15T15:40:56.000Z,174
2023-03-15T15:43:41.000Z,168
2023-03-15T15:46:25.000Z,163
2023-03-15T15:49:10.000Z,163
2023-03-15T15:51:54.000Z,163
2023-03-15T15:54:39.000Z,157
2023-03-15T15:57:24.000Z,146
2023-03-15T16:00:08.000Z,140
2023-03-15T16:02:53.000Z,135
2023-03-15T16:05:38.000Z,135
2023-03-15T16:06:55.000Z,135
2023-03-15T16:08:22.000Z,129
2023-03-15T16:11:07.000Z,129
2023-03-15T16:13:52.000Z,118
2023-03-15T16:16:36.000Z,123
2023-03-15T16:19:21.000Z,118
2023-03-15T16:22:06.000Z,118
2023-03-15T16:24:50.000Z,112
2023-03-15T16:27:35.000Z,101
2023-03-15T16:30:19.000Z,95
2023-03-15T16:33:04.000Z,95
2023-03-15T16:34:22.000Z,84
2023-03-15T16:35:49.000Z,84
2023-03-15T16:38:33.000Z,78
2023-03-15T16:41:18.000Z,73
2023-03-15T16:44:03.000Z,67
2023-03-15T16:46:47.000Z,56
2023-03-15T16:49:32.000Z,56
2023-03-15T16:52:17.000Z,50
2023-03-15T16:55:01.000Z,50
2023-03-15T16:57:46.000Z,45
2023-03-15T17:00:30.000Z,39
2023-03-15T17:01:48.000Z,39
2023-03-15T17:03:15.000Z,33
2023-03-15T17:06:00.000Z,33
2023-03-15T17:08:44.000Z,28
2023-03-15T17:11:29.000Z,22
2023-03-15T17:14:14.000Z,22
2023-03-15T17:16:58.000Z,16
2023-03-15T17:19:43.000Z,16
2023-03-15T17:22:28.000Z,11
2023-03-15T17:25:12.000Z,11
2023-03-15T17:27:57.000Z,11
2023-03-15T17:29:15.000Z,5
2023-03-15T17:30:42.000Z,5
2023-03-15T17:33:26.000Z,5
2023-03-15T17:36:11.000Z,0
2023-03-15T17:38:55.000Z,0
2023-03-15T17:41:40.000Z,0
2023-03-15T17:44:25.000Z,0
2023-03-15T17:47:09.000Z,0
2023-03-15T17:49:54.000Z,0
2023-03-15T17:52:39.000Z,0
2023-03-15T17:55:23.000Z,0
2023-03-15T17:56:41.000Z,0
2023-03-15T17:58:08.000Z,0
2023-03-15T18:00:53.000Z,0
2023-03-15T18:03:37.000Z,0
2023-03-15T18:06:22.000Z,0
2023-03-15T18:09:06.000Z,0
2023-03-15T18:11:51.000Z,0
2023-03-15T18:14:36.000Z,0
2023-03-15T18:17:20.000Z,0
2023-03-15T18:20:05.000Z,0
2023-03-15T18:22:50.000Z,0
2023-03-15T18:24:08.000Z,0
2023-03-15T18:25:34.000Z,0
2023-03-15T18:28:19.000Z,0
2023-03-15T18:31:04.000Z,0
2023-03-15T18:33:48.000Z,0
2023-03-15T18:36:33.000Z,0
2023-03-15T18:39:18.000Z,0
2023-03-15T18:42:02.000Z,0
2023-03-15T18:44:47.000Z,0
2023-03-15T18:47:31.000Z,0
2023-03-15T18:50:16.000Z,0
2023-03-15T18:51:34.000Z,0
2023-03-15T18:53:01.000Z,0
2023-03-15T18:55:45.000Z,0
2023-03-15T18:58:30.000Z,0
2023-03-15T19:01:15.000Z,0
2023-03-15T19:03:59.000Z,0
2023-03-15T19:06:44.000Z,0
2023-03-15T19:09:29.000Z,0
2023-03-15T19:12:13.000Z,0
2023-03-15T19:14:58.000Z,0
2023-03-15T19:17:43.000Z,0
2023-03-15T19:19:00.000Z,0
2023-03-15T19:20:27.000Z,0
2023-03-15T19:23:12.000Z,0
2023-03-15T19:25:56.000Z,0
2023-03-15T19:28:41.000Z,0
2023-03-15T19:31:26.000Z,0
2023-03-15T19:34:10.000Z,0
2023-03-15T19:36:55.000Z,0
2023-03-15T19:39:40.000Z,0
2023-03-15T19:42:24.000Z,0
2023-03-15T19:45:09.000Z,0
2023-03-15T19:46:27.000Z,0
2023-03-15T19:47:54.000Z,0
2023-03-15T19:50:38.000Z,0
2023-03-15T19:53:23.000Z,0
2023-03-15T19:56:08.000Z,0
2023-03-15T19:58:52.000Z,0
2023-03-15T20:01:37.000Z,0
2023-03-15T20:04:21.000Z,0
2023-03-15T20:07:06.000Z,0
2023-03-15T20:09:51.000Z,0
2023-03-15T20:12:35.000Z,0
2023-03-15T20:13:53.000Z,0
2023-03-15T20:15:20.000Z,0
2023-03-15T20:18:05.000Z,0
2023-03-15T20:20:49.000Z,0
2023-03-15T20:23:34.000Z,0
2023-03-15T20:26:19.000Z,0
2023-03-15T20:29:03.000Z,0
2023-03-15T20:31:48.000Z,0
2023-03-15T20:34:32.000Z,0
2023-03-15T20:37:17.000Z,0
2023-03-15T20:40:02.000Z,0
2023-03-15T20:41:20.000Z,0
2023-03-15T20:42:46.000Z,0
2023-03-15T20:45:31.000Z,0
2023-03-15T20:48:16.000Z,0
2023-03-15T20:51:00.000Z,0
2023-03-15T20:53:45.000Z,0
2023-03-15T20:56:30.000Z,0
2023-03-15T20:59:14.000Z,0
2023-03-15T21:01:59.000Z,0
2023-03-15T21:04:44.000Z,0
2023-03-15T21:07:28.000Z,0
2023-03-15T21:08:46.000Z,0
2023-03-15T21:10:13.000Z,0
2023-03-15T21:12:57.000Z,0
2023-03-15T21:15:42.000Z,0
2023-03-15T21:18:27.000Z,0
2023-03-15T21:21:11.000Z,0
2023-03-15T21:23:56.000Z,0
2023-03-15T21:26:41.000Z,0
2023-03-15T21:29:25.000Z,0
2023-03-15T21:32:10.000Z,0
2023-03-15T21:35:11.000Z,0
2023-03-15T21:36:29.000Z,0
2023-03-15T21:37:56.000Z,0
2023-03-15T21:40:40.000Z,0
2023-03-15T21:43:25.000Z,0
2023-03-15T21:46:10.000Z,0
2023-03-15T21:48:54.000Z,0
2023-03-15T21:51:39.000Z,0
2023-03-15T21:54:23.000Z,0
2023-03-15T21:57:08.000Z,0
2023-03-15T21:59:53.000Z,0
2023-03-15T22:02:37.000Z,0
2023-03-15T22:03:55.000Z,0
2023-03-15T22:05:22.000Z,0
2023-03-15T22:08:07.000Z,0
2023-03-15T22:10:51.000Z,0
2023-03-15T22:13:36.000Z,0
2023-03-15T22:16:21.000Z,0
2023-03-15T22:19:05.000Z,0
2023-03-15T22:21:50.000Z,0
2023-03-15T22:24:35.000Z,0
2023-03-15T22:27:19.000Z,0
2023-03-15T22:30:04.000Z,0
2023-03-15T22:31:22.000Z,0
2023-03-15T22:32:48.000Z,0
2023-03-15T22:35:33.000Z,0
2023-03-15T22:38:18.000Z,0
2023-03-15T22:41:02.000Z,0
2023-03-15T22:43:47.000Z,0
2023-03-15T22:46:32.000Z,0
2023-03-15T22:49:16.000Z,0
2023-03-15T22:52:01.000Z,0
2023-03-15T22:54:46.000Z,0
2023-03-15T22:57:30.000Z,0
2023-03-15T22:58:48.000Z,0
2023-03-15T23:00:15.000Z,0
2023-03-15T23:02:59.000Z,0
2023-03-15T23:05:44.000Z,0
2023-03-15T23:08:29.000Z,0
2023-03-15T23:11:13.000Z,0
2023-03-15T23:16:43.000Z,0
2023-03-15T23:19:27.000Z,0
2023-03-15T23:24:57.000Z,0
2023-03-15T23:26:14.000Z,0
2023-03-15T23:27:41.000Z,0
2023-03-15T23:30:26.000Z,0
2023-03-15T23:33:11.000Z,0
2023-03-15T23:35:55.000Z,0
2023-03-15T23:38:40.000Z,0
2023-03-15T23:41:24.000Z,0
2023-03-15T23:44:09.000Z,0
2023-03-15T23:46:54.000Z,0
2023-03-15T23:49:38.000Z,0
2023-03-15T23:52:23.000Z,0
2023-03-15T23:53:41.000Z,0
2023-03-15T23:55:08.000Z,0
2023-03-15T23:57:52.000Z,0
